Hlavní strana
METAR-TAF:

METAR-TAF

Letiště :

Heidrun, Norsko

zeměpisná šířka: 65-19-30N, zeměpisná délka: 007-19-36E, výška: 0 m

Aktuální stav počasí

Zpráva byla vytvořena před 24 minutami, v 17:50 UTC
Severoseverozápadní vítr 34 kt
Teplota 1°C
Vlhkost vzduchu 80%
Tlak 991 hPa
Viditelnost 10 km a více
Oblačno až skoro zataženo ve výšce 2000 ft
přeháňky v blízkosti

METAR: ENHE 231750Z 34034KT 9999 VCSH BKN020 01/M02 Q0991 W///S7

Čas: 19:14 (18:14 UTC)

Předpověď počasí

Zpráva byla vytvořena před 1 hodinou a 14 minutami, v 17:00 UTC
Předpověď platná od 23 v 18 UTC do 24 v 03 UTC
Severoseverozápadní vítr 30 kt
Viditelnost 10 km a více
Skoro jasno ve výšce 2000 ft
Polojasno ve výšce 4000 ft
slabé dešťové přeháňky
Dočasný
od 23 v 18 UTC do 24 v 03 UTC
Viditelnost: 3000 m
Oblačno až skoro zataženo ve výšce 1200 ft, Cumulonimbus.
Polojasno ve výšce 1500 ft, Cumulonimbus.
dešťové přeháňky, sníh

TAF: ENHE 231700Z 2318/2403 34030KT 9999 -SHRA FEW020 SCT040 TEMPO 2318/2403 3000 SHRASN BKN012CB SCT015CB

Stav a předpovědi počasí z více než 4 000 letišť (zprávy METAR a TAF).

Červené a žluté tečky na mapě představují dostupné meteorologické stanice.

Když kurzor umístíte na tečku, zobrazí se název stanice.

Pak kliknutím zobrazíte stav a předpověď počasí.

Chcete-li změnit mapu, kliknutím na zelené tlačítko se znaménkem +mapu přiblížíte, kliknutím na zelené tlačítko se znaménkem – mapu oddálíte a kliknutím na zelené šipky přejdete na sousední mapy.


METAR-TAF: